Agua Limpa, Brazil
Current Conditions -  °F | °C
As of 8:17 AM on Friday 19 Dec 2014 (Local Time) from SBUL Reporting Station
Few Clouds Few Clouds  
Wind Chill: 66°   Ceiling: Unl
Heat Index: 66°   Visibility: 6mi
Dew Point: 64°   Wind: 8mph
Humidity: 94%   Direction: 80°E
Pressure: 29.94"   Gusts: NA
Location:  18.1°S, 48.77°W
Report Text: SBUL 191017Z 08007KT 9999 FEW002 19/18 Q1014
Loading
Personal Weather Stations






























Interactive Weather Map New forecast layout! Learn more

10-Day Weather Forecast

Advertisements
Track Severe Weather on mobile